createdAt,value
2018-04-13T00:00:10.248Z,13.90
2018-04-13T00:01:05.697Z,13.80
2018-04-13T00:02:07.867Z,13.80
2018-04-13T00:03:05.691Z,13.70
2018-04-13T00:04:06.036Z,13.70
2018-04-13T00:05:05.680Z,13.70
2018-04-13T00:06:05.335Z,13.70
2018-04-13T00:07:08.549Z,13.60
2018-04-13T00:08:06.080Z,13.70
2018-04-13T00:09:10.617Z,13.60
2018-04-13T00:10:08.616Z,13.60
2018-04-13T00:11:11.100Z,13.60
2018-04-13T00:12:05.867Z,13.60
2018-04-13T00:13:05.459Z,13.60
2018-04-13T00:14:08.606Z,13.50
2018-04-13T00:15:06.194Z,13.50
2018-04-13T00:16:06.192Z,13.50
2018-04-13T00:17:08.904Z,13.40
2018-04-13T00:18:05.366Z,13.40
2018-04-13T00:19:05.376Z,13.40
2018-04-13T00:20:05.300Z,13.40
2018-04-13T00:21:07.874Z,13.30
2018-04-13T00:22:12.948Z,13.30
2018-04-13T00:23:06.034Z,13.30
2018-04-13T00:24:10.725Z,13.30
2018-04-13T00:25:06.102Z,13.30
2018-04-13T00:26:08.506Z,13.20
2018-04-13T00:27:05.927Z,13.30
2018-04-13T00:28:08.524Z,13.20
2018-04-13T00:29:06.095Z,13.20
2018-04-13T00:30:05.865Z,13.20
2018-04-13T00:31:06.104Z,13.20
2018-04-13T00:32:06.127Z,13.20
2018-04-13T00:33:07.698Z,13.20
2018-04-13T00:34:05.275Z,13.20
2018-04-13T00:35:06.172Z,13.20
2018-04-13T00:36:08.462Z,13.20
2018-04-13T00:37:05.921Z,13.20
2018-04-13T00:38:08.046Z,13.20
2018-04-13T00:39:08.062Z,13.20
2018-04-13T00:40:05.438Z,13.20
2018-04-13T00:41:06.019Z,13.20
2018-04-13T00:42:05.743Z,13.20
2018-04-13T00:43:05.317Z,13.20
2018-04-13T00:44:05.213Z,13.20
2018-04-13T00:45:05.239Z,13.10
2018-04-13T00:46:13.719Z,13.10
2018-04-13T00:47:05.433Z,13.10
2018-04-13T00:48:06.092Z,13.20
2018-04-13T00:49:10.952Z,13.10
2018-04-13T00:50:05.350Z,13.10
2018-04-13T00:51:06.230Z,13.10
2018-04-13T00:52:05.917Z,13.20
2018-04-13T00:53:05.450Z,0.30
2018-04-13T00:54:06.069Z,13.10
2018-04-13T00:55:05.591Z,13.10
2018-04-13T00:56:05.397Z,13.10
2018-04-13T00:57:08.716Z,13.10
2018-04-13T00:58:10.310Z,13.10
2018-04-13T00:59:05.720Z,13.10
2018-04-13T01:00:10.364Z,13.10
2018-04-13T01:01:10.957Z,13.10
2018-04-13T01:02:05.378Z,13.10
2018-04-13T01:03:12.962Z,13.10
2018-04-13T01:04:05.524Z,13.10
2018-04-13T01:05:06.288Z,13.10
2018-04-13T01:06:05.380Z,13.10
2018-04-13T01:07:08.649Z,13.10
2018-04-13T01:08:05.255Z,13.10
2018-04-13T01:09:05.782Z,13.10
2018-04-13T01:10:06.175Z,13.10
2018-04-13T01:11:05.840Z,13.10
2018-04-13T01:12:08.029Z,13.10
2018-04-13T01:13:07.997Z,13.10
2018-04-13T01:14:05.587Z,13.00
2018-04-13T01:15:05.596Z,13.10
2018-04-13T01:16:10.773Z,13.00
2018-04-13T01:17:05.188Z,13.00
2018-04-13T01:18:07.704Z,13.10
2018-04-13T01:19:07.802Z,13.00
2018-04-13T01:20:05.470Z,13.10
2018-04-13T01:21:05.434Z,13.10
2018-04-13T01:22:06.157Z,13.00
2018-04-13T01:23:05.293Z,13.00
2018-04-13T01:24:10.897Z,13.00
2018-04-13T01:25:07.799Z,12.90
2018-04-13T01:26:05.266Z,13.00
2018-04-13T01:27:10.373Z,12.90
2018-04-13T01:28:08.475Z,12.90
2018-04-13T01:29:06.071Z,12.90
2018-04-13T01:30:05.603Z,12.90
2018-04-13T01:31:08.420Z,12.90
2018-04-13T01:32:08.411Z,12.90
2018-04-13T01:33:08.515Z,12.90
2018-04-13T01:34:05.702Z,12.90
2018-04-13T01:35:05.558Z,12.90
2018-04-13T01:36:05.175Z,12.90
2018-04-13T01:37:08.571Z,12.90
2018-04-13T01:38:05.964Z,12.90
2018-04-13T01:39:10.187Z,12.90
2018-04-13T01:40:08.252Z,12.90
2018-04-13T01:41:05.691Z,12.90
2018-04-13T01:42:05.234Z,12.90
2018-04-13T01:43:05.348Z,12.90
2018-04-13T01:44:06.201Z,12.90
2018-04-13T01:45:11.018Z,12.90
2018-04-13T01:46:07.975Z,12.90
2018-04-13T01:47:10.405Z,12.90
2018-04-13T01:48:05.882Z,12.90
2018-04-13T01:49:05.311Z,12.90
2018-04-13T01:50:05.312Z,12.80
2018-04-13T01:51:07.658Z,12.90
2018-04-13T01:52:11.189Z,12.90
2018-04-13T01:53:05.699Z,12.90
2018-04-13T01:54:10.433Z,12.90
2018-04-13T01:55:05.902Z,12.80
2018-04-13T01:56:05.546Z,12.80
2018-04-13T01:57:05.496Z,12.90
2018-04-13T01:58:05.317Z,12.90
2018-04-13T01:59:05.314Z,12.90
2018-04-13T02:00:10.545Z,12.80
2018-04-13T02:01:06.024Z,12.90
2018-04-13T02:02:13.319Z,12.80
2018-04-13T02:03:05.893Z,12.80
2018-04-13T02:04:10.527Z,12.70
2018-04-13T02:05:11.044Z,12.70
2018-04-13T02:06:10.213Z,12.70
2018-04-13T02:07:05.632Z,12.70
2018-04-13T02:08:05.819Z,12.70
2018-04-13T02:09:05.882Z,12.60
2018-04-13T02:10:05.527Z,12.70
2018-04-13T02:11:05.588Z,12.70
2018-04-13T02:12:05.226Z,12.70
2018-04-13T02:13:05.270Z,12.60
2018-04-13T02:14:10.451Z,12.60
2018-04-13T02:15:08.311Z,12.60
2018-04-13T02:16:08.265Z,12.60
2018-04-13T02:17:06.076Z,12.60
2018-04-13T02:18:08.319Z,12.60
2018-04-13T02:19:08.322Z,12.60
2018-04-13T02:20:05.867Z,12.60
2018-04-13T02:21:08.204Z,12.60
2018-04-13T02:22:05.735Z,12.60
2018-04-13T02:23:10.462Z,12.50
2018-04-13T02:24:05.511Z,12.50
2018-04-13T02:25:10.155Z,12.50
2018-04-13T02:26:10.818Z,12.40
2018-04-13T02:27:06.332Z,12.40
2018-04-13T02:28:05.880Z,12.40
2018-04-13T02:29:08.027Z,12.40
2018-04-13T02:30:05.411Z,12.30
2018-04-13T02:31:05.375Z,12.30
2018-04-13T02:32:05.306Z,12.30
2018-04-13T02:33:10.789Z,12.30
2018-04-13T02:34:05.503Z,12.30
2018-04-13T02:35:07.807Z,12.20
2018-04-13T02:36:05.428Z,12.30
2018-04-13T02:37:07.790Z,12.20
2018-04-13T02:38:07.795Z,12.20
2018-04-13T02:39:05.237Z,12.20
2018-04-13T02:40:05.326Z,12.20
2018-04-13T02:41:06.048Z,12.20
2018-04-13T02:42:05.746Z,12.20
2018-04-13T02:43:07.931Z,12.20
2018-04-13T02:44:05.395Z,12.20
2018-04-13T02:45:05.318Z,12.20
2018-04-13T02:46:06.433Z,12.20
2018-04-13T02:47:10.405Z,12.10
2018-04-13T02:48:05.603Z,12.10
2018-04-13T02:49:05.166Z,12.10
2018-04-13T02:50:11.177Z,12.00
2018-04-13T02:51:05.761Z,11.90
2018-04-13T02:52:10.446Z,11.90
2018-04-13T02:53:08.569Z,11.90
2018-04-13T02:54:10.534Z,11.80
2018-04-13T02:55:06.365Z,11.80
2018-04-13T02:56:11.029Z,11.80
2018-04-13T02:57:05.444Z,11.80
2018-04-13T02:58:06.100Z,11.80
2018-04-13T02:59:10.721Z,11.70
2018-04-13T03:00:08.489Z,11.70
2018-04-13T03:01:05.957Z,11.70
2018-04-13T03:02:05.968Z,11.70
2018-04-13T03:03:05.624Z,11.70
2018-04-13T03:04:05.523Z,11.70
2018-04-13T03:05:08.492Z,11.70
2018-04-13T03:06:11.003Z,11.70
2018-04-13T03:07:10.744Z,11.70
2018-04-13T03:08:05.781Z,11.70
2018-04-13T03:09:05.476Z,11.70
2018-04-13T03:10:12.167Z,11.70
2018-04-13T03:11:13.230Z,11.70
2018-04-13T03:12:06.717Z,11.70
2018-04-13T03:13:05.326Z,11.70
2018-04-13T03:14:08.470Z,11.70
2018-04-13T03:15:05.922Z,11.60
2018-04-13T03:16:05.788Z,11.60
2018-04-13T03:17:05.388Z,11.70
2018-04-13T03:18:06.107Z,11.70
2018-04-13T03:19:05.725Z,11.60
2018-04-13T03:20:05.915Z,11.60
2018-04-13T03:21:05.616Z,11.50
2018-04-13T03:22:05.177Z,11.50
2018-04-13T03:23:10.256Z,11.50
2018-04-13T03:24:05.775Z,11.50
2018-04-13T03:25:05.609Z,11.50
2018-04-13T03:26:10.480Z,11.40
2018-04-13T03:27:11.055Z,11.30
2018-04-13T03:28:05.596Z,11.30
2018-04-13T03:29:05.155Z,11.30
2018-04-13T03:30:08.523Z,11.30
2018-04-13T03:31:08.506Z,11.20
2018-04-13T03:32:11.116Z,11.20
2018-04-13T03:33:08.110Z,11.20
2018-04-13T03:34:05.551Z,11.20
2018-04-13T03:35:05.440Z,11.20
2018-04-13T03:36:10.439Z,11.10
2018-04-13T03:37:05.983Z,11.10
2018-04-13T03:38:05.710Z,11.10
2018-04-13T03:39:05.410Z,11.00
2018-04-13T03:40:05.525Z,11.00
2018-04-13T03:41:05.176Z,11.00
2018-04-13T03:42:05.085Z,11.00
2018-04-13T03:43:05.280Z,10.90
2018-04-13T03:44:05.256Z,10.90
2018-04-13T03:45:05.347Z,10.90
2018-04-13T03:46:10.260Z,10.90
2018-04-13T03:47:10.828Z,10.90
2018-04-13T03:48:05.612Z,10.90
2018-04-13T03:49:10.431Z,10.90
2018-04-13T03:50:06.045Z,10.90
2018-04-13T03:51:08.181Z,10.90
2018-04-13T03:52:05.591Z,10.90
2018-04-13T03:53:10.311Z,10.90
2018-04-13T03:54:08.397Z,10.90
2018-04-13T03:55:05.861Z,10.90
2018-04-13T03:56:05.449Z,10.90
2018-04-13T03:57:08.083Z,10.90
2018-04-13T03:58:08.166Z,10.90
2018-04-13T03:59:10.691Z,10.80
2018-04-13T04:00:05.188Z,10.90
2018-04-13T04:01:05.769Z,10.90
2018-04-13T04:02:12.964Z,10.80
2018-04-13T04:03:05.673Z,10.80
2018-04-13T04:04:05.934Z,10.80
2018-04-13T04:05:05.687Z,10.80
2018-04-13T04:06:08.214Z,10.80
2018-04-13T04:07:15.799Z,10.80
2018-04-13T04:08:05.786Z,10.80
2018-04-13T04:09:05.805Z,10.80
2018-04-13T04:10:08.036Z,10.70
2018-04-13T04:11:10.629Z,10.70
2018-04-13T04:12:05.502Z,10.70
2018-04-13T04:13:05.634Z,10.70
2018-04-13T04:14:05.597Z,10.70
2018-04-13T04:15:05.202Z,10.70
2018-04-13T04:16:05.990Z,10.70
2018-04-13T04:17:05.543Z,10.60
2018-04-13T04:18:05.510Z,10.60
2018-04-13T04:19:05.588Z,10.60
2018-04-13T04:20:05.521Z,10.60
2018-04-13T04:21:07.740Z,10.60
2018-04-13T04:22:10.320Z,10.60
2018-04-13T04:23:08.570Z,10.60
2018-04-13T04:24:11.038Z,10.50
2018-04-13T04:25:09.158Z,10.60
2018-04-13T04:26:08.271Z,10.50
2018-04-13T04:27:08.279Z,10.50
2018-04-13T04:28:08.466Z,10.50
2018-04-13T04:29:06.076Z,10.50
2018-04-13T04:30:05.866Z,10.50
2018-04-13T04:31:06.181Z,10.50
2018-04-13T04:32:06.143Z,10.60
2018-04-13T04:33:05.569Z,10.50
2018-04-13T04:34:05.302Z,10.50
2018-04-13T04:35:08.184Z,10.60
2018-04-13T04:36:05.716Z,10.60
2018-04-13T04:37:05.348Z,10.60
2018-04-13T04:38:05.418Z,10.60
2018-04-13T04:39:05.743Z,10.60
2018-04-13T04:40:05.568Z,10.70
2018-04-13T04:41:05.621Z,10.70
2018-04-13T04:42:05.894Z,10.70
2018-04-13T04:43:07.977Z,10.70
2018-04-13T04:44:07.910Z,10.70
2018-04-13T04:45:05.340Z,10.70
2018-04-13T04:46:05.442Z,10.70
2018-04-13T04:47:05.208Z,10.70
2018-04-13T04:48:05.427Z,10.70
2018-04-13T04:49:05.958Z,10.80
2018-04-13T04:50:05.769Z,10.70
2018-04-13T04:51:08.010Z,10.80
2018-04-13T04:52:05.621Z,10.70
2018-04-13T04:53:10.381Z,10.80
2018-04-13T04:54:10.989Z,10.80
2018-04-13T04:55:10.532Z,10.80
2018-04-13T04:56:06.056Z,10.80
2018-04-13T04:57:10.871Z,10.80
2018-04-13T04:58:10.897Z,10.80
2018-04-13T04:59:07.922Z,10.90
2018-04-13T05:00:07.900Z,10.90
2018-04-13T05:01:05.872Z,10.80
2018-04-13T05:02:10.668Z,10.90
2018-04-13T05:03:05.991Z,10.90
2018-04-13T05:04:06.554Z,10.90
2018-04-13T05:05:06.272Z,10.90
2018-04-13T05:06:08.442Z,10.90
2018-04-13T05:07:05.840Z,10.90
2018-04-13T05:08:05.692Z,10.80
2018-04-13T05:09:05.319Z,10.90
2018-04-13T05:10:05.960Z,10.90
2018-04-13T05:11:05.508Z,10.90
2018-04-13T05:12:05.238Z,10.90
2018-04-13T05:13:05.570Z,10.90
2018-04-13T05:14:05.561Z,10.90
2018-04-13T05:15:05.321Z,10.90
2018-04-13T05:16:05.937Z,10.90
2018-04-13T05:17:06.016Z,11.00
2018-04-13T05:18:11.115Z,11.00
2018-04-13T05:19:08.215Z,11.10
2018-04-13T05:20:10.874Z,11.10
2018-04-13T05:21:05.681Z,11.10
2018-04-13T05:22:05.492Z,11.10
2018-04-13T05:23:05.274Z,11.20
2018-04-13T05:24:10.478Z,11.10
2018-04-13T05:25:06.002Z,11.10
2018-04-13T05:26:06.003Z,11.20
2018-04-13T05:27:06.682Z,11.20
2018-04-13T05:28:08.556Z,11.20
2018-04-13T05:29:06.195Z,11.30
2018-04-13T05:30:05.418Z,11.30
2018-04-13T05:31:05.437Z,11.30
2018-04-13T05:32:05.723Z,11.30
2018-04-13T05:33:10.706Z,11.30
2018-04-13T05:34:05.184Z,11.30
2018-04-13T05:35:05.981Z,11.30
2018-04-13T05:36:08.226Z,11.30
2018-04-13T05:37:06.260Z,11.30
2018-04-13T05:38:08.443Z,11.40
2018-04-13T05:39:11.136Z,11.40
2018-04-13T05:40:06.079Z,11.40
2018-04-13T05:41:10.923Z,11.40
2018-04-13T05:42:05.471Z,11.40
2018-04-13T05:43:06.072Z,11.50
2018-04-13T05:44:05.610Z,11.50
2018-04-13T05:45:08.198Z,11.50
2018-04-13T05:46:05.894Z,11.50
2018-04-13T05:47:05.606Z,11.50
2018-04-13T05:48:05.203Z,11.50
2018-04-13T05:49:08.574Z,11.50
2018-04-13T05:50:06.008Z,11.50
2018-04-13T05:51:10.773Z,11.60
2018-04-13T05:52:10.303Z,11.50
2018-04-13T05:53:10.929Z,11.60
2018-04-13T05:54:10.593Z,11.60
2018-04-13T05:55:06.127Z,11.60
2018-04-13T05:56:07.702Z,11.60
2018-04-13T05:57:05.209Z,11.60
2018-04-13T05:58:05.644Z,11.60
2018-04-13T05:59:05.619Z,11.70
2018-04-13T06:00:08.078Z,11.70
2018-04-13T06:01:08.116Z,11.70
2018-04-13T06:02:05.620Z,11.70
2018-04-13T06:03:06.929Z,11.70
2018-04-13T06:04:08.163Z,11.70
2018-04-13T06:05:05.880Z,11.70
2018-04-13T06:06:05.726Z,11.80
2018-04-13T06:07:08.060Z,11.80
2018-04-13T06:08:08.144Z,11.80
2018-04-13T06:09:08.062Z,11.80
2018-04-13T06:10:13.235Z,11.80
2018-04-13T06:11:05.781Z,11.80
2018-04-13T06:12:06.122Z,11.90
2018-04-13T06:13:05.806Z,11.80
2018-04-13T06:14:08.093Z,11.90
2018-04-13T06:15:08.243Z,11.90
2018-04-13T06:16:06.066Z,11.90
2018-04-13T06:17:06.199Z,11.90
2018-04-13T06:18:05.906Z,11.90
2018-04-13T06:19:05.681Z,11.90
2018-04-13T06:20:05.695Z,12.00
2018-04-13T06:21:05.944Z,12.00
2018-04-13T06:22:06.080Z,11.90
2018-04-13T06:23:13.084Z,12.00
2018-04-13T06:24:05.563Z,12.00
2018-04-13T06:25:13.077Z,12.00
2018-04-13T06:26:05.512Z,12.00
2018-04-13T06:27:10.648Z,12.00
2018-04-13T06:28:06.167Z,12.10
2018-04-13T06:29:10.929Z,12.10
2018-04-13T06:30:05.439Z,12.00
2018-04-13T06:31:05.408Z,12.10
2018-04-13T06:32:10.907Z,12.10
2018-04-13T06:33:05.669Z,12.10
2018-04-13T06:34:05.594Z,12.10
2018-04-13T06:35:07.889Z,12.10
2018-04-13T06:36:05.300Z,12.10
2018-04-13T06:37:05.563Z,12.10
2018-04-13T06:38:05.528Z,12.20
2018-04-13T06:39:05.352Z,12.20
2018-04-13T06:40:05.197Z,12.20
2018-04-13T06:41:05.415Z,12.20
2018-04-13T06:42:06.050Z,12.20
2018-04-13T06:43:06.299Z,12.20
2018-04-13T06:44:08.412Z,12.20
2018-04-13T06:45:10.744Z,12.20
2018-04-13T06:46:07.816Z,12.20
2018-04-13T06:47:05.351Z,12.20
2018-04-13T06:48:06.022Z,12.20
2018-04-13T06:49:05.982Z,12.30
2018-04-13T06:50:05.638Z,12.30
2018-04-13T06:51:06.380Z,12.30
2018-04-13T06:52:09.358Z,12.30
2018-04-13T06:53:06.032Z,12.30
2018-04-13T06:54:05.871Z,12.30
2018-04-13T06:55:05.675Z,12.40
2018-04-13T06:56:07.945Z,12.40
2018-04-13T06:57:11.006Z,12.40
2018-04-13T06:58:08.209Z,12.40
2018-04-13T06:59:05.753Z,12.40
2018-04-13T07:00:05.560Z,12.40
2018-04-13T07:01:06.179Z,12.50
2018-04-13T07:02:08.583Z,12.50
2018-04-13T07:03:06.345Z,12.50
2018-04-13T07:04:06.159Z,12.60
2018-04-13T07:05:05.911Z,12.60
2018-04-13T07:06:05.821Z,12.60
2018-04-13T07:07:10.637Z,12.60
2018-04-13T07:08:05.195Z,12.60
2018-04-13T07:09:05.972Z,12.60
2018-04-13T07:10:10.713Z,12.60
2018-04-13T07:11:05.407Z,12.70
2018-04-13T07:12:08.138Z,12.70
2018-04-13T07:13:10.938Z,12.70
2018-04-13T07:14:05.873Z,12.70
2018-04-13T07:15:05.673Z,12.70
2018-04-13T07:16:06.070Z,12.80
2018-04-13T07:17:05.887Z,12.80
2018-04-13T07:18:05.536Z,12.90
2018-04-13T07:19:07.865Z,12.90
2018-04-13T07:20:10.962Z,12.90
2018-04-13T07:21:05.564Z,12.90
2018-04-13T07:22:10.440Z,12.90
2018-04-13T07:23:10.308Z,12.90
2018-04-13T07:24:06.088Z,12.90
2018-04-13T07:25:05.677Z,13.00
2018-04-13T07:26:06.621Z,13.00
2018-04-13T07:27:07.915Z,13.00
2018-04-13T07:28:05.831Z,13.00
2018-04-13T07:29:05.949Z,13.00
2018-04-13T07:30:10.852Z,13.00
2018-04-13T07:31:06.205Z,13.00
2018-04-13T07:32:06.137Z,13.00
2018-04-13T07:33:10.416Z,13.10
2018-04-13T07:34:06.843Z,13.00
2018-04-13T07:35:05.667Z,13.10
2018-04-13T07:36:08.248Z,13.10
2018-04-13T07:37:08.320Z,13.10
2018-04-13T07:38:12.198Z,13.10
2018-04-13T07:39:08.427Z,13.10
2018-04-13T07:40:06.179Z,13.10
2018-04-13T07:41:05.893Z,13.10
2018-04-13T07:42:05.428Z,13.20
2018-04-13T07:43:05.963Z,13.20
2018-04-13T07:44:08.453Z,13.20
2018-04-13T07:45:05.402Z,13.20
2018-04-13T07:46:05.815Z,13.20
2018-04-13T07:47:05.846Z,13.20
2018-04-13T07:48:06.120Z,13.20
2018-04-13T07:49:11.580Z,13.20
2018-04-13T07:50:05.493Z,13.20
2018-04-13T07:51:08.054Z,13.20
2018-04-13T07:52:05.748Z,13.30
2018-04-13T07:53:05.586Z,13.30
2018-04-13T07:54:08.371Z,13.30
2018-04-13T07:55:11.023Z,13.30
2018-04-13T07:56:05.754Z,13.30
2018-04-13T07:57:06.135Z,13.30
2018-04-13T07:58:10.274Z,13.30
2018-04-13T07:59:05.824Z,13.40
2018-04-13T08:00:08.207Z,13.40
2018-04-13T08:01:06.095Z,13.40
2018-04-13T08:02:10.468Z,13.40
2018-04-13T08:03:11.174Z,13.40
2018-04-13T08:04:08.045Z,13.40
2018-04-13T08:05:10.605Z,13.50
2018-04-13T08:06:11.242Z,13.50
2018-04-13T08:07:08.531Z,13.60
2018-04-13T08:08:11.175Z,13.60
2018-04-13T08:09:05.444Z,13.60
2018-04-13T08:10:05.397Z,13.60
2018-04-13T08:11:05.714Z,13.60
2018-04-13T08:12:05.766Z,13.70
2018-04-13T08:13:08.474Z,13.70
2018-04-13T08:14:05.709Z,13.70
2018-04-13T08:15:05.316Z,13.70
2018-04-13T08:16:08.618Z,13.80
2018-04-13T08:17:07.702Z,13.70
2018-04-13T08:18:07.789Z,13.80
2018-04-13T08:19:05.449Z,13.80
2018-04-13T08:20:08.806Z,13.80
2018-04-13T08:21:06.265Z,13.80
2018-04-13T08:22:08.467Z,13.90
2018-04-13T08:23:10.942Z,13.80
2018-04-13T08:24:06.255Z,13.90
2018-04-13T08:25:06.209Z,13.90
2018-04-13T08:26:08.487Z,13.90
2018-04-13T08:27:06.499Z,13.90
2018-04-13T08:28:05.360Z,14.00
2018-04-13T08:29:05.436Z,14.00
2018-04-13T08:30:05.843Z,14.00
2018-04-13T08:31:08.434Z,14.10
2018-04-13T08:32:05.961Z,14.00
2018-04-13T08:33:08.391Z,14.10
2018-04-13T08:34:05.881Z,14.10
2018-04-13T08:35:05.468Z,14.10
2018-04-13T08:36:05.698Z,14.10
2018-04-13T08:37:05.328Z,14.10
2018-04-13T08:38:08.652Z,14.10
2018-04-13T08:39:10.332Z,14.20
2018-04-13T08:40:08.489Z,14.20
2018-04-13T08:41:08.645Z,14.20
2018-04-13T08:42:05.238Z,14.20
2018-04-13T08:43:10.381Z,14.20
2018-04-13T08:44:06.407Z,14.20
2018-04-13T08:45:10.217Z,14.20
2018-04-13T08:46:08.265Z,14.20
2018-04-13T08:47:05.853Z,14.20
2018-04-13T08:48:10.699Z,14.20
2018-04-13T08:49:05.402Z,14.20
2018-04-13T08:50:05.453Z,14.20
2018-04-13T08:51:05.696Z,14.20
2018-04-13T08:52:05.758Z,14.20
2018-04-13T08:53:05.692Z,14.10
2018-04-13T08:54:05.534Z,14.10
2018-04-13T08:55:05.926Z,14.10
2018-04-13T08:56:08.326Z,14.10
2018-04-13T08:57:11.063Z,14.10
2018-04-13T08:58:05.646Z,14.10
2018-04-13T08:59:08.134Z,14.00
2018-04-13T09:00:08.133Z,14.10
2018-04-13T09:01:06.616Z,14.10
2018-04-13T09:02:07.768Z,14.10
2018-04-13T09:03:05.511Z,14.10
2018-04-13T09:04:10.753Z,14.10
2018-04-13T09:05:16.300Z,14.10
2018-04-13T09:06:05.949Z,14.10
2018-04-13T09:07:06.075Z,14.10
2018-04-13T09:08:06.858Z,14.10
2018-04-13T09:09:05.663Z,14.20
2018-04-13T09:10:05.385Z,14.20
2018-04-13T09:11:05.211Z,14.20
2018-04-13T09:12:10.292Z,14.20
2018-04-13T09:13:08.402Z,14.20
2018-04-13T09:14:05.919Z,14.20
2018-04-13T09:15:05.958Z,14.20
2018-04-13T09:16:05.874Z,14.20
2018-04-13T09:17:05.570Z,14.20
2018-04-13T09:18:05.455Z,14.30
2018-04-13T09:19:05.596Z,14.30
2018-04-13T09:20:07.937Z,14.30
2018-04-13T09:21:05.895Z,14.30
2018-04-13T09:22:11.098Z,14.30
2018-04-13T09:23:05.862Z,14.30
2018-04-13T09:24:11.961Z,14.30
2018-04-13T09:25:05.432Z,14.30
2018-04-13T09:26:05.733Z,14.30
2018-04-13T09:27:05.999Z,14.40
2018-04-13T09:28:06.005Z,14.40
2018-04-13T09:29:07.993Z,14.40
2018-04-13T09:30:08.437Z,14.40
2018-04-13T09:31:06.392Z,14.40
2018-04-13T09:32:06.199Z,14.50
2018-04-13T09:33:05.854Z,14.50
2018-04-13T09:34:05.882Z,14.50
2018-04-13T09:35:05.772Z,14.50
2018-04-13T09:36:06.607Z,14.60
2018-04-13T09:37:05.733Z,14.60
2018-04-13T09:38:05.326Z,14.60
2018-04-13T09:39:08.215Z,14.70
2018-04-13T09:40:05.792Z,14.60
2018-04-13T09:41:08.214Z,14.70
2018-04-13T09:42:05.705Z,14.70
2018-04-13T09:43:06.219Z,14.70
2018-04-13T09:44:08.439Z,14.80
2018-04-13T09:45:05.901Z,14.80
2018-04-13T09:46:05.347Z,14.80
2018-04-13T09:47:08.412Z,14.90
2018-04-13T09:48:06.179Z,14.90
2018-04-13T09:49:05.948Z,14.90
2018-04-13T09:50:05.685Z,14.90
2018-04-13T09:51:05.430Z,15.00
2018-04-13T09:52:11.158Z,15.00
2018-04-13T09:53:05.569Z,15.00
2018-04-13T09:54:05.852Z,15.00
2018-04-13T09:55:05.858Z,15.00
2018-04-13T09:56:05.367Z,15.10
2018-04-13T09:57:05.240Z,15.10
2018-04-13T09:58:06.135Z,15.10
2018-04-13T09:59:05.819Z,15.10
2018-04-13T10:00:06.061Z,15.10
2018-04-13T10:01:05.997Z,15.20
2018-04-13T10:02:08.384Z,15.20
2018-04-13T10:03:08.414Z,15.20
2018-04-13T10:04:06.372Z,15.20
2018-04-13T10:05:08.530Z,15.30
2018-04-13T10:06:08.498Z,15.30
2018-04-13T10:07:06.006Z,15.30
2018-04-13T10:08:06.029Z,15.30
2018-04-13T10:09:06.179Z,15.30
2018-04-13T10:10:05.500Z,15.30
2018-04-13T10:11:05.567Z,15.40
2018-04-13T10:12:05.561Z,15.40
2018-04-13T10:13:10.588Z,15.40
2018-04-13T10:14:06.591Z,15.40
2018-04-13T10:15:05.184Z,15.50
2018-04-13T10:16:05.524Z,15.50
2018-04-13T10:17:05.709Z,15.50
2018-04-13T10:18:06.172Z,15.50
2018-04-13T10:19:08.423Z,15.50
2018-04-13T10:20:05.956Z,15.50
2018-04-13T10:21:05.961Z,15.50
2018-04-13T10:22:10.913Z,15.50
2018-04-13T10:23:05.399Z,15.50
2018-04-13T10:24:05.875Z,15.60
2018-04-13T10:25:05.940Z,15.60
2018-04-13T10:26:05.602Z,15.60
2018-04-13T10:27:05.683Z,15.60
2018-04-13T10:28:10.718Z,15.50
2018-04-13T10:29:10.395Z,15.60
2018-04-13T10:30:06.116Z,15.60
2018-04-13T10:31:05.808Z,15.60
2018-04-13T10:32:05.464Z,15.60
2018-04-13T10:33:10.792Z,15.60
2018-04-13T10:34:05.141Z,15.60
2018-04-13T10:35:10.478Z,15.70
2018-04-13T10:36:06.075Z,15.70
2018-04-13T10:37:05.815Z,15.60
2018-04-13T10:38:11.159Z,15.70
2018-04-13T10:39:05.968Z,15.60
2018-04-13T10:40:08.332Z,15.70
2018-04-13T10:41:05.800Z,15.70
2018-04-13T10:42:05.427Z,15.70
2018-04-13T10:43:05.607Z,15.70
2018-04-13T10:44:08.273Z,15.70
2018-04-13T10:45:11.047Z,15.60
2018-04-13T10:46:13.185Z,15.70
2018-04-13T10:47:05.739Z,15.70
2018-04-13T10:48:05.132Z,15.70
2018-04-13T10:49:10.920Z,15.70
2018-04-13T10:50:06.202Z,15.70
2018-04-13T10:51:12.852Z,15.70
2018-04-13T10:52:05.441Z,15.70
2018-04-13T10:53:05.403Z,15.70
2018-04-13T10:54:06.141Z,15.70
2018-04-13T10:55:11.098Z,15.60
2018-04-13T10:56:10.319Z,15.70
2018-04-13T10:57:08.319Z,15.70
2018-04-13T10:58:05.899Z,15.70
2018-04-13T10:59:05.557Z,15.70
2018-04-13T11:00:05.343Z,15.70
2018-04-13T11:01:06.023Z,15.70
2018-04-13T11:02:06.083Z,15.70
2018-04-13T11:03:06.104Z,15.70
2018-04-13T11:04:06.226Z,15.70
2018-04-13T11:05:05.801Z,15.70
2018-04-13T11:06:06.108Z,15.70
2018-04-13T11:07:05.851Z,15.70
2018-04-13T11:08:11.065Z,15.70
2018-04-13T11:09:07.709Z,15.70
2018-04-13T11:10:10.514Z,15.70
2018-04-13T11:11:06.412Z,15.70
2018-04-13T11:12:06.648Z,15.70
2018-04-13T11:13:07.826Z,15.80
2018-04-13T11:14:05.361Z,15.70
2018-04-13T11:15:05.782Z,15.80
2018-04-13T11:16:10.379Z,15.80
2018-04-13T11:17:08.378Z,15.90
2018-04-13T11:18:05.888Z,15.90
2018-04-13T11:19:05.716Z,15.90
2018-04-13T11:20:05.799Z,15.90
2018-04-13T11:21:08.203Z,16.00
2018-04-13T11:22:13.485Z,16.00
2018-04-13T11:23:16.164Z,16.00
2018-04-13T11:24:06.049Z,16.00
2018-04-13T11:25:05.484Z,16.00
2018-04-13T11:26:08.637Z,16.00
2018-04-13T11:27:11.129Z,16.10
2018-04-13T11:28:10.606Z,16.10
2018-04-13T11:29:18.211Z,16.10
2018-04-13T11:30:05.752Z,16.10
2018-04-13T11:31:05.750Z,16.10
2018-04-13T11:32:05.637Z,16.10
2018-04-13T11:33:05.259Z,16.10
2018-04-13T11:34:05.689Z,16.10
2018-04-13T11:35:10.796Z,16.10
2018-04-13T11:36:08.513Z,16.10
2018-04-13T11:37:11.207Z,16.10
2018-04-13T11:38:10.699Z,16.00
2018-04-13T11:39:06.086Z,16.10
2018-04-13T11:40:05.675Z,16.00
2018-04-13T11:41:05.780Z,16.00
2018-04-13T11:42:10.511Z,15.90
2018-04-13T11:43:08.522Z,15.90
2018-04-13T11:44:06.073Z,15.90
2018-04-13T11:45:05.701Z,15.80
2018-04-13T11:46:05.708Z,15.80
2018-04-13T11:47:05.492Z,15.80
2018-04-13T11:48:05.864Z,15.80
2018-04-13T11:49:10.988Z,15.70
2018-04-13T11:50:08.124Z,15.60
2018-04-13T11:51:05.727Z,15.70
2018-04-13T11:52:08.247Z,15.60
2018-04-13T11:53:05.768Z,15.60
2018-04-13T11:54:05.648Z,15.60
2018-04-13T11:55:07.921Z,15.50
2018-04-13T11:56:10.551Z,15.50
2018-04-13T11:57:06.348Z,15.50
2018-04-13T11:58:06.036Z,15.50
2018-04-13T11:59:05.749Z,15.40
2018-04-13T12:00:08.117Z,15.40
2018-04-13T12:01:10.694Z,15.40
2018-04-13T12:02:06.337Z,15.40
2018-04-13T12:03:08.553Z,15.40
2018-04-13T12:04:06.341Z,15.40
2018-04-13T12:05:06.007Z,15.40
2018-04-13T12:06:08.293Z,15.30
2018-04-13T12:07:05.915Z,15.40
2018-04-13T12:08:10.678Z,15.30
2018-04-13T12:09:05.187Z,15.40
2018-04-13T12:10:06.303Z,15.40
2018-04-13T12:11:11.003Z,15.40
2018-04-13T12:12:08.025Z,15.50
2018-04-13T12:13:05.891Z,15.50
2018-04-13T12:14:05.602Z,15.50
2018-04-13T12:15:10.266Z,15.60
2018-04-13T12:16:05.763Z,15.60
2018-04-13T12:17:05.752Z,15.70
2018-04-13T12:18:05.564Z,15.70
2018-04-13T12:19:10.440Z,15.80
2018-04-13T12:20:06.105Z,15.80
2018-04-13T12:21:05.985Z,15.90
2018-04-13T12:22:08.626Z,15.90
2018-04-13T12:23:10.191Z,15.90
2018-04-13T12:24:08.257Z,16.00
2018-04-13T12:25:05.948Z,16.00
2018-04-13T12:26:05.869Z,16.10
2018-04-13T12:27:10.771Z,16.10
2018-04-13T12:28:10.428Z,16.10
2018-04-13T12:29:13.666Z,16.10
2018-04-13T12:30:05.267Z,16.10
2018-04-13T12:31:05.724Z,16.10
2018-04-13T12:32:10.975Z,16.20
2018-04-13T12:33:08.806Z,16.20
2018-04-13T12:34:05.387Z,16.20
2018-04-13T12:35:05.573Z,16.20
2018-04-13T12:36:06.178Z,16.30
2018-04-13T12:37:05.804Z,16.30
2018-04-13T12:38:08.333Z,16.40
2018-04-13T12:39:08.340Z,16.50
2018-04-13T12:40:06.055Z,16.50
2018-04-13T12:41:06.032Z,16.60
2018-04-13T12:42:09.268Z,16.60
2018-04-13T12:43:05.438Z,16.60
2018-04-13T12:44:05.574Z,16.60
2018-04-13T12:45:05.466Z,16.70
2018-04-13T12:46:10.762Z,16.80
2018-04-13T12:47:05.377Z,16.70
2018-04-13T12:48:05.658Z,16.80
2018-04-13T12:49:06.130Z,16.80
2018-04-13T12:50:08.321Z,16.80
2018-04-13T12:51:05.961Z,16.80
2018-04-13T12:52:08.539Z,16.90